Terminal Aerodrome Forecast
Issued by NWS Sioux Falls, SD

Home | Current Version | Previous Version | Text Only | Print | Product List | Glossary On
Versions: 1 2 3 4 5 6 7 8 9 10 11 12 13 14 15 16
000
FTUS43 KFSD 211130
TAFFSD
TAF
KFSD 211130Z 2112/2212 18014KT P6SM SKC
     FM211500 18016G23KT P6SM BKN200
     FM212200 18011KT P6SM BKN120
     FM220200 18008KT P6SM OVC012=

USA.gov is the U.S. government's official web portal to all federal, state and local government web resources and services.